Orjiva, Spain
Current Conditions -  °F | °C
As of 8:30 AM on Saturday 29 Nov 2014 (Local Time) from LEGR Reporting Station
Scattered Clouds Scattered Clouds  
Wind Chill: 37°   Ceiling: Unl
Heat Index: 37°   Visibility: 4mi
Dew Point: 37°   Wind: 0mph
Humidity: 100%   Direction: NA
Pressure: 29.32"   Gusts: NA
Location:  36.9°N, 3.42°W
Report Text: LEGR 290730Z 00000KT 7000 FEW003 SCT055 03/03 Q0993
Loading
Personal Weather Stations






























Interactive Weather Map New forecast layout! Learn more

10-Day Weather Forecast

Advertisements
Track Severe Weather on mobile